43PA weather

Kolb Airport
Spring City, Pennsylvania, United States

Public forecast

Using degrees Fahrenheit for public forecast. Weather courtesy of forecast.io.

Closest aviation weather report (METAR) to Kolb Airport

Closest report is Heritage Field, 4.8 nm (8.9 km) N. Retrieved 2020/07/04 19:54 UTC (59 minutes ago):

KPTW 041954Z AUTO VRB03KT 8SM FEW055 29/17 A2993 RMK AO2 SLP131 T02890172

Closest aviation forecast (TAF) to Kolb Airport

Closest forecast is Philadelphia International Airport, 22.3 nm (41.3 km) SE. Retrieved 2020/07/04 18:23 UTC (3 hours ago):

TAF KPHL 041720Z 0418/0524 10006KT P6SM BKN045 FM042100 17003KT P6SM VCTS SCT045CB BKN080 FM050000 18003KT P6SM SCT080 FM050400 VRB03KT P6SM SCT080 FM051100 30005KT P6SM SCT080 FM052200 24006KT P6SM FEW100